sensor_id;sensor_type;location;lat;lon;timestamp;temperature;humidity
10530;DHT22;5313;48.834;9.228;2023-03-14T00:01:57;9.90;99.90
10530;DHT22;5313;48.834;9.228;2023-03-14T00:04:22;9.90;99.90
10530;DHT22;5313;48.834;9.228;2023-03-14T00:06:48;10.00;99.90
10530;DHT22;5313;48.834;9.228;2023-03-14T00:09:15;10.00;99.90
10530;DHT22;5313;48.834;9.228;2023-03-14T00:11:41;10.00;99.90
10530;DHT22;5313;48.834;9.228;2023-03-14T00:14:06;10.00;99.90
10530;DHT22;5313;48.834;9.228;2023-03-14T00:16:32;10.00;99.90
10530;DHT22;5313;48.834;9.228;2023-03-14T00:19:00;10.00;99.90
10530;DHT22;5313;48.834;9.228;2023-03-14T00:21:26;10.00;99.90
10530;DHT22;5313;48.834;9.228;2023-03-14T00:23:52;10.00;99.90
10530;DHT22;5313;48.834;9.228;2023-03-14T00:26:19;10.00;99.90
10530;DHT22;5313;48.834;9.228;2023-03-14T00:28:46;10.00;99.90
10530;DHT22;5313;48.834;9.228;2023-03-14T00:31:15;10.00;99.90
10530;DHT22;5313;48.834;9.228;2023-03-14T00:33:41;10.00;99.90
10530;DHT22;5313;48.834;9.228;2023-03-14T00:36:09;10.00;99.90
10530;DHT22;5313;48.834;9.228;2023-03-14T00:38:36;10.10;99.90
10530;DHT22;5313;48.834;9.228;2023-03-14T00:41:13;10.00;99.90
10530;DHT22;5313;48.834;9.228;2023-03-14T00:43:39;10.10;99.90
10530;DHT22;5313;48.834;9.228;2023-03-14T00:46:05;10.10;99.90
10530;DHT22;5313;48.834;9.228;2023-03-14T00:48:30;10.10;99.90
10530;DHT22;5313;48.834;9.228;2023-03-14T00:50:56;10.20;99.90
10530;DHT22;5313;48.834;9.228;2023-03-14T00:53:22;10.20;99.90
10530;DHT22;5313;48.834;9.228;2023-03-14T00:55:48;10.20;99.90
10530;DHT22;5313;48.834;9.228;2023-03-14T00:58:15;10.20;99.90
10530;DHT22;5313;48.834;9.228;2023-03-14T01:00:42;10.30;99.90
10530;DHT22;5313;48.834;9.228;2023-03-14T01:03:09;10.20;99.90
10530;DHT22;5313;48.834;9.228;2023-03-14T01:05:35;10.30;99.90
10530;DHT22;5313;48.834;9.228;2023-03-14T01:08:00;10.30;99.90
10530;DHT22;5313;48.834;9.228;2023-03-14T01:10:26;10.30;99.90
10530;DHT22;5313;48.834;9.228;2023-03-14T01:12:52;10.30;99.90
10530;DHT22;5313;48.834;9.228;2023-03-14T01:15:19;10.30;99.90
10530;DHT22;5313;48.834;9.228;2023-03-14T01:17:45;10.40;99.90
10530;DHT22;5313;48.834;9.228;2023-03-14T01:20:13;10.40;99.90
10530;DHT22;5313;48.834;9.228;2023-03-14T01:22:40;10.40;99.90
10530;DHT22;5313;48.834;9.228;2023-03-14T01:25:08;10.40;99.90
10530;DHT22;5313;48.834;9.228;2023-03-14T01:27:34;10.30;99.90
10530;DHT22;5313;48.834;9.228;2023-03-14T01:29:59;10.30;99.90
10530;DHT22;5313;48.834;9.228;2023-03-14T01:32:25;10.20;99.90
10530;DHT22;5313;48.834;9.228;2023-03-14T01:34:51;10.20;99.90
10530;DHT22;5313;48.834;9.228;2023-03-14T01:37:17;10.10;99.90
10530;DHT22;5313;48.834;9.228;2023-03-14T01:39:42;10.10;99.90
10530;DHT22;5313;48.834;9.228;2023-03-14T01:42:08;10.10;99.90
10530;DHT22;5313;48.834;9.228;2023-03-14T01:44:55;10.20;99.90
10530;DHT22;5313;48.834;9.228;2023-03-14T01:47:22;10.20;99.90
10530;DHT22;5313;48.834;9.228;2023-03-14T01:49:53;10.10;99.90
10530;DHT22;5313;48.834;9.228;2023-03-14T01:52:27;10.10;99.90
10530;DHT22;5313;48.834;9.228;2023-03-14T01:54:55;10.10;99.90
10530;DHT22;5313;48.834;9.228;2023-03-14T01:59:58;10.20;99.90
10530;DHT22;5313;48.834;9.228;2023-03-14T02:02:26;10.30;99.90
10530;DHT22;5313;48.834;9.228;2023-03-14T02:04:54;10.30;99.90
10530;DHT22;5313;48.834;9.228;2023-03-14T02:07:30;10.30;99.90
10530;DHT22;5313;48.834;9.228;2023-03-14T02:09:57;10.30;99.90
10530;DHT22;5313;48.834;9.228;2023-03-14T02:12:24;10.30;99.90
10530;DHT22;5313;48.834;9.228;2023-03-14T02:14:50;10.30;99.90
10530;DHT22;5313;48.834;9.228;2023-03-14T02:17:17;10.40;99.90
10530;DHT22;5313;48.834;9.228;2023-03-14T02:22:35;10.50;99.90
10530;DHT22;5313;48.834;9.228;2023-03-14T02:25:09;10.50;99.90
10530;DHT22;5313;48.834;9.228;2023-03-14T02:27:38;10.40;99.90
10530;DHT22;5313;48.834;9.228;2023-03-14T02:32:33;10.30;99.90
10530;DHT22;5313;48.834;9.228;2023-03-14T02:35:03;10.30;99.90
10530;DHT22;5313;48.834;9.228;2023-03-14T02:37:35;10.40;99.90
10530;DHT22;5313;48.834;9.228;2023-03-14T02:40:02;10.30;99.90
10530;DHT22;5313;48.834;9.228;2023-03-14T02:42:29;10.30;99.90
10530;DHT22;5313;48.834;9.228;2023-03-14T02:45:25;10.30;99.90
10530;DHT22;5313;48.834;9.228;2023-03-14T02:47:49;10.30;99.90
10530;DHT22;5313;48.834;9.228;2023-03-14T02:50:21;10.20;99.90
10530;DHT22;5313;48.834;9.228;2023-03-14T02:52:46;10.20;99.90
10530;DHT22;5313;48.834;9.228;2023-03-14T02:55:12;10.20;99.90
10530;DHT22;5313;48.834;9.228;2023-03-14T02:57:38;10.20;99.90
10530;DHT22;5313;48.834;9.228;2023-03-14T03:00:04;10.20;99.90
10530;DHT22;5313;48.834;9.228;2023-03-14T03:02:30;10.20;99.90
10530;DHT22;5313;48.834;9.228;2023-03-14T03:04:56;10.20;99.90
10530;DHT22;5313;48.834;9.228;2023-03-14T03:07:22;10.20;99.90
10530;DHT22;5313;48.834;9.228;2023-03-14T03:09:47;10.20;99.90
10530;DHT22;5313;48.834;9.228;2023-03-14T03:12:13;10.20;99.90
10530;DHT22;5313;48.834;9.228;2023-03-14T03:14:38;10.20;99.90
10530;DHT22;5313;48.834;9.228;2023-03-14T03:17:04;10.20;99.90
10530;DHT22;5313;48.834;9.228;2023-03-14T03:19:31;10.20;99.90
10530;DHT22;5313;48.834;9.228;2023-03-14T03:21:56;10.30;99.90
10530;DHT22;5313;48.834;9.228;2023-03-14T03:24:23;10.20;99.90
10530;DHT22;5313;48.834;9.228;2023-03-14T03:26:49;10.20;99.90
10530;DHT22;5313;48.834;9.228;2023-03-14T03:29:14;10.20;99.90
10530;DHT22;5313;48.834;9.228;2023-03-14T03:31:40;10.30;99.90
10530;DHT22;5313;48.834;9.228;2023-03-14T03:34:06;10.30;99.90
10530;DHT22;5313;48.834;9.228;2023-03-14T03:36:32;10.20;99.90
10530;DHT22;5313;48.834;9.228;2023-03-14T03:38:58;10.20;99.90
10530;DHT22;5313;48.834;9.228;2023-03-14T03:41:24;10.30;99.90
10530;DHT22;5313;48.834;9.228;2023-03-14T03:43:49;10.40;99.90
10530;DHT22;5313;48.834;9.228;2023-03-14T03:46:15;10.40;99.90
10530;DHT22;5313;48.834;9.228;2023-03-14T03:48:40;10.30;99.90
10530;DHT22;5313;48.834;9.228;2023-03-14T03:51:06;10.30;99.90
10530;DHT22;5313;48.834;9.228;2023-03-14T03:53:32;10.30;99.90
10530;DHT22;5313;48.834;9.228;2023-03-14T03:55:57;10.30;99.90
10530;DHT22;5313;48.834;9.228;2023-03-14T03:58:23;10.20;99.90
10530;DHT22;5313;48.834;9.228;2023-03-14T04:00:48;10.30;99.90
10530;DHT22;5313;48.834;9.228;2023-03-14T04:03:14;10.30;99.90
10530;DHT22;5313;48.834;9.228;2023-03-14T04:05:39;10.30;99.90
10530;DHT22;5313;48.834;9.228;2023-03-14T04:08:05;10.20;99.90
10530;DHT22;5313;48.834;9.228;2023-03-14T04:10:34;10.10;99.90
10530;DHT22;5313;48.834;9.228;2023-03-14T04:13:00;10.20;99.90
10530;DHT22;5313;48.834;9.228;2023-03-14T04:15:26;10.20;99.90
10530;DHT22;5313;48.834;9.228;2023-03-14T04:17:57;10.20;99.90
10530;DHT22;5313;48.834;9.228;2023-03-14T04:20:22;10.20;99.90
10530;DHT22;5313;48.834;9.228;2023-03-14T04:22:48;10.10;99.90
10530;DHT22;5313;48.834;9.228;2023-03-14T04:25:13;10.20;99.90
10530;DHT22;5313;48.834;9.228;2023-03-14T04:27:39;10.20;99.90
10530;DHT22;5313;48.834;9.228;2023-03-14T04:30:05;10.20;99.90
10530;DHT22;5313;48.834;9.228;2023-03-14T04:32:31;10.20;99.90
10530;DHT22;5313;48.834;9.228;2023-03-14T04:34:56;10.20;99.90
10530;DHT22;5313;48.834;9.228;2023-03-14T04:37:22;10.20;99.90
10530;DHT22;5313;48.834;9.228;2023-03-14T04:39:47;10.20;99.90
10530;DHT22;5313;48.834;9.228;2023-03-14T04:42:12;10.10;99.90
10530;DHT22;5313;48.834;9.228;2023-03-14T04:44:38;10.00;99.90
10530;DHT22;5313;48.834;9.228;2023-03-14T04:47:03;10.00;99.90
10530;DHT22;5313;48.834;9.228;2023-03-14T04:49:29;10.10;99.90
10530;DHT22;5313;48.834;9.228;2023-03-14T04:51:55;10.20;99.90
10530;DHT22;5313;48.834;9.228;2023-03-14T04:54:20;10.10;99.90
10530;DHT22;5313;48.834;9.228;2023-03-14T04:56:45;10.10;99.90
10530;DHT22;5313;48.834;9.228;2023-03-14T04:59:11;10.20;99.90
10530;DHT22;5313;48.834;9.228;2023-03-14T05:01:36;10.20;99.90
10530;DHT22;5313;48.834;9.228;2023-03-14T05:04:02;10.10;99.90
10530;DHT22;5313;48.834;9.228;2023-03-14T05:06:28;10.00;99.90
10530;DHT22;5313;48.834;9.228;2023-03-14T05:08:53;10.00;99.90
10530;DHT22;5313;48.834;9.228;2023-03-14T05:11:19;9.90;99.90
10530;DHT22;5313;48.834;9.228;2023-03-14T05:13:44;9.90;99.90
10530;DHT22;5313;48.834;9.228;2023-03-14T05:16:10;9.90;99.90
10530;DHT22;5313;48.834;9.228;2023-03-14T05:18:37;9.90;99.90
10530;DHT22;5313;48.834;9.228;2023-03-14T05:21:03;9.90;99.90
10530;DHT22;5313;48.834;9.228;2023-03-14T05:23:29;9.80;99.90
10530;DHT22;5313;48.834;9.228;2023-03-14T05:25:55;9.90;99.90
10530;DHT22;5313;48.834;9.228;2023-03-14T05:28:21;9.80;99.90
10530;DHT22;5313;48.834;9.228;2023-03-14T05:30:47;9.80;99.90
10530;DHT22;5313;48.834;9.228;2023-03-14T05:33:12;9.70;99.90
10530;DHT22;5313;48.834;9.228;2023-03-14T05:35:38;9.70;99.90
10530;DHT22;5313;48.834;9.228;2023-03-14T05:38:03;9.70;99.90
10530;DHT22;5313;48.834;9.228;2023-03-14T05:40:29;9.70;99.90
10530;DHT22;5313;48.834;9.228;2023-03-14T05:42:54;9.70;99.90
10530;DHT22;5313;48.834;9.228;2023-03-14T05:45:20;9.70;99.90
10530;DHT22;5313;48.834;9.228;2023-03-14T05:47:45;9.80;99.90
10530;DHT22;5313;48.834;9.228;2023-03-14T05:50:11;9.70;99.90
10530;DHT22;5313;48.834;9.228;2023-03-14T05:52:37;9.80;99.90
10530;DHT22;5313;48.834;9.228;2023-03-14T05:55:03;9.80;99.90
10530;DHT22;5313;48.834;9.228;2023-03-14T05:57:28;9.80;99.90
10530;DHT22;5313;48.834;9.228;2023-03-14T05:59:54;9.80;99.90
10530;DHT22;5313;48.834;9.228;2023-03-14T06:02:19;9.90;99.90
10530;DHT22;5313;48.834;9.228;2023-03-14T06:04:45;9.80;99.90
10530;DHT22;5313;48.834;9.228;2023-03-14T06:07:10;9.80;99.90
10530;DHT22;5313;48.834;9.228;2023-03-14T06:09:36;9.80;99.90
10530;DHT22;5313;48.834;9.228;2023-03-14T06:12:01;9.80;99.90
10530;DHT22;5313;48.834;9.228;2023-03-14T06:14:27;9.80;99.90
10530;DHT22;5313;48.834;9.228;2023-03-14T06:16:52;9.80;99.90
10530;DHT22;5313;48.834;9.228;2023-03-14T06:19:19;9.80;99.90
10530;DHT22;5313;48.834;9.228;2023-03-14T06:21:44;9.80;99.90
10530;DHT22;5313;48.834;9.228;2023-03-14T06:24:10;9.90;99.90
10530;DHT22;5313;48.834;9.228;2023-03-14T06:26:35;9.90;99.90
10530;DHT22;5313;48.834;9.228;2023-03-14T06:29:01;9.90;99.90
10530;DHT22;5313;48.834;9.228;2023-03-14T06:31:29;9.90;99.90
10530;DHT22;5313;48.834;9.228;2023-03-14T06:33:55;9.90;99.90
10530;DHT22;5313;48.834;9.228;2023-03-14T06:36:21;9.90;99.90
10530;DHT22;5313;48.834;9.228;2023-03-14T06:38:47;9.90;99.90
10530;DHT22;5313;48.834;9.228;2023-03-14T06:41:12;9.90;99.90
10530;DHT22;5313;48.834;9.228;2023-03-14T06:43:38;9.90;99.90
10530;DHT22;5313;48.834;9.228;2023-03-14T06:46:03;9.90;99.90
10530;DHT22;5313;48.834;9.228;2023-03-14T06:48:29;10.00;99.90
10530;DHT22;5313;48.834;9.228;2023-03-14T06:50:55;10.00;99.90
10530;DHT22;5313;48.834;9.228;2023-03-14T06:53:20;10.10;99.90
10530;DHT22;5313;48.834;9.228;2023-03-14T06:55:46;10.20;99.90
10530;DHT22;5313;48.834;9.228;2023-03-14T06:58:11;10.30;99.90
10530;DHT22;5313;48.834;9.228;2023-03-14T07:00:37;10.30;99.90
10530;DHT22;5313;48.834;9.228;2023-03-14T07:03:02;10.40;99.90
10530;DHT22;5313;48.834;9.228;2023-03-14T07:05:28;10.60;99.90
10530;DHT22;5313;48.834;9.228;2023-03-14T07:07:54;10.70;99.90
10530;DHT22;5313;48.834;9.228;2023-03-14T07:10:20;10.80;99.90
10530;DHT22;5313;48.834;9.228;2023-03-14T07:12:45;10.90;99.90
10530;DHT22;5313;48.834;9.228;2023-03-14T07:15:11;10.90;99.90
10530;DHT22;5313;48.834;9.228;2023-03-14T07:17:36;10.90;99.90
10530;DHT22;5313;48.834;9.228;2023-03-14T07:20:02;10.90;99.90
10530;DHT22;5313;48.834;9.228;2023-03-14T07:22:30;11.10;99.90
10530;DHT22;5313;48.834;9.228;2023-03-14T07:24:55;11.20;99.90
10530;DHT22;5313;48.834;9.228;2023-03-14T07:27:21;11.30;99.90
10530;DHT22;5313;48.834;9.228;2023-03-14T07:29:46;11.50;99.90
10530;DHT22;5313;48.834;9.228;2023-03-14T07:32:12;11.60;99.90
10530;DHT22;5313;48.834;9.228;2023-03-14T07:34:40;11.60;99.90
10530;DHT22;5313;48.834;9.228;2023-03-14T07:37:06;11.70;99.90
10530;DHT22;5313;48.834;9.228;2023-03-14T07:39:31;11.80;99.90
10530;DHT22;5313;48.834;9.228;2023-03-14T07:41:57;11.90;99.90
10530;DHT22;5313;48.834;9.228;2023-03-14T07:44:22;11.90;99.90
10530;DHT22;5313;48.834;9.228;2023-03-14T07:46:48;12.00;99.90
10530;DHT22;5313;48.834;9.228;2023-03-14T07:49:13;12.10;99.90
10530;DHT22;5313;48.834;9.228;2023-03-14T07:51:39;12.10;99.90
10530;DHT22;5313;48.834;9.228;2023-03-14T07:54:04;12.20;99.90
10530;DHT22;5313;48.834;9.228;2023-03-14T07:56:30;12.10;99.90
10530;DHT22;5313;48.834;9.228;2023-03-14T07:58:56;12.20;99.90
10530;DHT22;5313;48.834;9.228;2023-03-14T08:01:22;12.30;99.90
10530;DHT22;5313;48.834;9.228;2023-03-14T08:03:47;12.40;99.90
10530;DHT22;5313;48.834;9.228;2023-03-14T08:06:13;12.50;99.90
10530;DHT22;5313;48.834;9.228;2023-03-14T08:08:39;12.40;99.90
10530;DHT22;5313;48.834;9.228;2023-03-14T08:11:05;12.60;99.90
10530;DHT22;5313;48.834;9.228;2023-03-14T08:13:34;12.60;99.90
10530;DHT22;5313;48.834;9.228;2023-03-14T08:15:59;12.80;99.90
10530;DHT22;5313;48.834;9.228;2023-03-14T08:18:25;12.90;99.90
10530;DHT22;5313;48.834;9.228;2023-03-14T08:20:50;13.00;99.90
10530;DHT22;5313;48.834;9.228;2023-03-14T08:23:16;12.90;99.90
10530;DHT22;5313;48.834;9.228;2023-03-14T08:25:41;12.90;99.90
10530;DHT22;5313;48.834;9.228;2023-03-14T08:28:07;12.90;99.90
10530;DHT22;5313;48.834;9.228;2023-03-14T08:30:33;13.00;99.90
10530;DHT22;5313;48.834;9.228;2023-03-14T08:32:58;12.90;99.90
10530;DHT22;5313;48.834;9.228;2023-03-14T08:35:25;13.00;99.90
10530;DHT22;5313;48.834;9.228;2023-03-14T08:37:50;13.10;99.90
10530;DHT22;5313;48.834;9.228;2023-03-14T08:40:18;13.40;99.90
10530;DHT22;5313;48.834;9.228;2023-03-14T08:42:44;13.60;99.90
10530;DHT22;5313;48.834;9.228;2023-03-14T08:45:12;13.60;99.90
10530;DHT22;5313;48.834;9.228;2023-03-14T08:47:38;13.50;99.90
10530;DHT22;5313;48.834;9.228;2023-03-14T08:50:04;13.30;99.90
10530;DHT22;5313;48.834;9.228;2023-03-14T08:52:31;13.20;99.90
10530;DHT22;5313;48.834;9.228;2023-03-14T08:54:57;13.20;99.90
10530;DHT22;5313;48.834;9.228;2023-03-14T08:57:23;13.10;99.90
10530;DHT22;5313;48.834;9.228;2023-03-14T08:59:53;13.10;99.90
10530;DHT22;5313;48.834;9.228;2023-03-14T09:02:19;13.20;99.90
10530;DHT22;5313;48.834;9.228;2023-03-14T09:04:45;13.40;99.90
10530;DHT22;5313;48.834;9.228;2023-03-14T09:07:10;13.50;99.90
10530;DHT22;5313;48.834;9.228;2023-03-14T09:09:36;13.60;99.90
10530;DHT22;5313;48.834;9.228;2023-03-14T09:12:02;13.50;99.90
10530;DHT22;5313;48.834;9.228;2023-03-14T09:14:27;13.50;99.90
10530;DHT22;5313;48.834;9.228;2023-03-14T09:16:54;13.30;99.90
10530;DHT22;5313;48.834;9.228;2023-03-14T09:19:20;13.20;99.90
10530;DHT22;5313;48.834;9.228;2023-03-14T09:21:45;13.10;99.90
10530;DHT22;5313;48.834;9.228;2023-03-14T09:24:11;13.00;99.90
10530;DHT22;5313;48.834;9.228;2023-03-14T09:26:37;13.10;99.90
10530;DHT22;5313;48.834;9.228;2023-03-14T09:29:03;13.20;99.90
10530;DHT22;5313;48.834;9.228;2023-03-14T09:31:28;13.20;99.90
10530;DHT22;5313;48.834;9.228;2023-03-14T09:33:55;12.90;99.90
10530;DHT22;5313;48.834;9.228;2023-03-14T09:36:20;12.80;99.90
10530;DHT22;5313;48.834;9.228;2023-03-14T09:38:46;12.80;99.90
10530;DHT22;5313;48.834;9.228;2023-03-14T09:41:32;12.90;99.90
10530;DHT22;5313;48.834;9.228;2023-03-14T09:44:29;13.20;99.90
10530;DHT22;5313;48.834;9.228;2023-03-14T09:46:58;13.20;99.90
10530;DHT22;5313;48.834;9.228;2023-03-14T09:49:29;13.20;99.90
10530;DHT22;5313;48.834;9.228;2023-03-14T09:51:58;13.30;99.90
10530;DHT22;5313;48.834;9.228;2023-03-14T09:54:57;13.30;99.90
10530;DHT22;5313;48.834;9.228;2023-03-14T09:57:26;13.40;99.90
10530;DHT22;5313;48.834;9.228;2023-03-14T09:59:54;13.50;99.90
10530;DHT22;5313;48.834;9.228;2023-03-14T10:02:23;13.40;99.90
10530;DHT22;5313;48.834;9.228;2023-03-14T10:04:51;13.50;99.90
10530;DHT22;5313;48.834;9.228;2023-03-14T10:07:28;13.80;99.90
10530;DHT22;5313;48.834;9.228;2023-03-14T10:09:54;13.90;99.90
10530;DHT22;5313;48.834;9.228;2023-03-14T10:12:21;14.10;99.90
10530;DHT22;5313;48.834;9.228;2023-03-14T10:14:55;14.40;99.90
10530;DHT22;5313;48.834;9.228;2023-03-14T10:17:21;14.50;99.90
10530;DHT22;5313;48.834;9.228;2023-03-14T10:19:59;14.30;99.90
10530;DHT22;5313;48.834;9.228;2023-03-14T10:22:30;14.20;99.90
10530;DHT22;5313;48.834;9.228;2023-03-14T10:25:01;14.50;99.90
10530;DHT22;5313;48.834;9.228;2023-03-14T10:27:30;14.80;99.90
10530;DHT22;5313;48.834;9.228;2023-03-14T10:29:58;14.90;99.90
10530;DHT22;5313;48.834;9.228;2023-03-14T10:32:38;15.10;99.90
10530;DHT22;5313;48.834;9.228;2023-03-14T10:35:24;14.80;99.90
10530;DHT22;5313;48.834;9.228;2023-03-14T10:37:57;14.60;99.90
10530;DHT22;5313;48.834;9.228;2023-03-14T10:40:39;14.40;99.90
10530;DHT22;5313;48.834;9.228;2023-03-14T10:43:11;14.30;99.90
10530;DHT22;5313;48.834;9.228;2023-03-14T10:45:42;14.00;99.90
10530;DHT22;5313;48.834;9.228;2023-03-14T10:48:18;13.80;99.90
10530;DHT22;5313;48.834;9.228;2023-03-14T10:53:50;13.90;99.90
10530;DHT22;5313;48.834;9.228;2023-03-14T10:56:22;14.00;99.90
10530;DHT22;5313;48.834;9.228;2023-03-14T10:58:50;14.00;99.90
10530;DHT22;5313;48.834;9.228;2023-03-14T11:09:58;13.30;99.90
10530;DHT22;5313;48.834;9.228;2023-03-14T11:15:40;13.10;99.90
10530;DHT22;5313;48.834;9.228;2023-03-14T11:29:43;12.40;99.90
10530;DHT22;5313;48.834;9.228;2023-03-14T11:32:15;11.90;99.90
10530;DHT22;5313;48.834;9.228;2023-03-14T11:34:51;11.70;99.90
10530;DHT22;5313;48.834;9.228;2023-03-14T11:37:25;11.50;99.90
10530;DHT22;5313;48.834;9.228;2023-03-14T11:40:13;11.40;99.90
10530;DHT22;5313;48.834;9.228;2023-03-14T11:42:42;11.30;99.90
10530;DHT22;5313;48.834;9.228;2023-03-14T11:45:22;11.20;99.90
10530;DHT22;5313;48.834;9.228;2023-03-14T11:50:42;11.30;99.90
10530;DHT22;5313;48.834;9.228;2023-03-14T11:55:59;11.40;99.90
10530;DHT22;5313;48.834;9.228;2023-03-14T11:58:34;11.40;99.90
10530;DHT22;5313;48.834;9.228;2023-03-14T12:01:08;11.50;99.90
10530;DHT22;5313;48.834;9.228;2023-03-14T12:03:42;11.40;99.90
10530;DHT22;5313;48.834;9.228;2023-03-14T12:06:20;11.30;99.90
10530;DHT22;5313;48.834;9.228;2023-03-14T12:08:58;11.00;99.90
10530;DHT22;5313;48.834;9.228;2023-03-14T12:11:45;11.00;99.90
10530;DHT22;5313;48.834;9.228;2023-03-14T12:14:33;11.00;99.90
10530;DHT22;5313;48.834;9.228;2023-03-14T12:17:19;11.20;99.90
10530;DHT22;5313;48.834;9.228;2023-03-14T12:19:45;11.20;99.90
10530;DHT22;5313;48.834;9.228;2023-03-14T12:22:30;11.30;99.90
10530;DHT22;5313;48.834;9.228;2023-03-14T12:25:02;11.30;99.90
10530;DHT22;5313;48.834;9.228;2023-03-14T12:27:49;11.30;99.90
10530;DHT22;5313;48.834;9.228;2023-03-14T12:30:40;11.30;99.90
10530;DHT22;5313;48.834;9.228;2023-03-14T12:35:39;11.40;99.90
10530;DHT22;5313;48.834;9.228;2023-03-14T12:38:09;11.60;99.90
10530;DHT22;5313;48.834;9.228;2023-03-14T12:40:40;11.30;99.90
10530;DHT22;5313;48.834;9.228;2023-03-14T12:43:29;11.40;99.90
10530;DHT22;5313;48.834;9.228;2023-03-14T12:48:29;12.30;99.90
10530;DHT22;5313;48.834;9.228;2023-03-14T12:51:00;11.60;99.90
10530;DHT22;5313;48.834;9.228;2023-03-14T12:53:55;11.40;99.90
10530;DHT22;5313;48.834;9.228;2023-03-14T12:59:27;11.40;99.90
10530;DHT22;5313;48.834;9.228;2023-03-14T13:04:36;11.90;99.90
10530;DHT22;5313;48.834;9.228;2023-03-14T13:07:29;12.20;99.90
10530;DHT22;5313;48.834;9.228;2023-03-14T13:10:02;12.00;99.90
10530;DHT22;5313;48.834;9.228;2023-03-14T13:12:34;12.30;99.90
10530;DHT22;5313;48.834;9.228;2023-03-14T13:15:57;12.10;99.90
10530;DHT22;5313;48.834;9.228;2023-03-14T13:18:15;12.00;99.90
10530;DHT22;5313;48.834;9.228;2023-03-14T13:20:50;11.70;99.90
10530;DHT22;5313;48.834;9.228;2023-03-14T13:23:21;12.00;99.90
10530;DHT22;5313;48.834;9.228;2023-03-14T13:25:47;11.80;99.90
10530;DHT22;5313;48.834;9.228;2023-03-14T13:28:14;11.90;99.90
10530;DHT22;5313;48.834;9.228;2023-03-14T13:30:43;12.00;99.90
10530;DHT22;5313;48.834;9.228;2023-03-14T13:33:20;11.70;99.90
10530;DHT22;5313;48.834;9.228;2023-03-14T13:35:48;12.00;99.90
10530;DHT22;5313;48.834;9.228;2023-03-14T13:38:20;12.40;99.90
10530;DHT22;5313;48.834;9.228;2023-03-14T13:40:46;12.30;99.90
10530;DHT22;5313;48.834;9.228;2023-03-14T13:43:18;12.00;99.90
10530;DHT22;5313;48.834;9.228;2023-03-14T13:45:51;11.40;99.90
10530;DHT22;5313;48.834;9.228;2023-03-14T13:48:19;11.00;99.90
10530;DHT22;5313;48.834;9.228;2023-03-14T13:50:58;11.10;99.90
10530;DHT22;5313;48.834;9.228;2023-03-14T13:53:25;11.10;99.90
10530;DHT22;5313;48.834;9.228;2023-03-14T13:55:51;11.00;99.90
10530;DHT22;5313;48.834;9.228;2023-03-14T13:58:37;11.00;99.90
10530;DHT22;5313;48.834;9.228;2023-03-14T14:01:12;11.00;99.90
10530;DHT22;5313;48.834;9.228;2023-03-14T14:03:40;10.90;99.90
10530;DHT22;5313;48.834;9.228;2023-03-14T14:06:35;10.60;99.90
10530;DHT22;5313;48.834;9.228;2023-03-14T14:09:11;10.60;99.90
10530;DHT22;5313;48.834;9.228;2023-03-14T14:11:47;10.50;99.90
10530;DHT22;5313;48.834;9.228;2023-03-14T14:14:39;10.50;99.90
10530;DHT22;5313;48.834;9.228;2023-03-14T14:17:10;10.50;99.90
10530;DHT22;5313;48.834;9.228;2023-03-14T14:19:36;10.40;97.90
10530;DHT22;5313;48.834;9.228;2023-03-14T14:22:04;10.20;96.50
10530;DHT22;5313;48.834;9.228;2023-03-14T14:24:32;10.10;97.10
10530;DHT22;5313;48.834;9.228;2023-03-14T14:29:44;10.30;97.10
10530;DHT22;5313;48.834;9.228;2023-03-14T14:32:21;10.30;97.80
10530;DHT22;5313;48.834;9.228;2023-03-14T14:34:59;10.20;98.00
10530;DHT22;5313;48.834;9.228;2023-03-14T14:37:32;10.10;98.50
10530;DHT22;5313;48.834;9.228;2023-03-14T14:40:05;10.00;99.90
10530;DHT22;5313;48.834;9.228;2023-03-14T14:42:32;10.10;99.90
10530;DHT22;5313;48.834;9.228;2023-03-14T14:44:58;10.10;99.90
10530;DHT22;5313;48.834;9.228;2023-03-14T14:47:27;10.10;99.90
10530;DHT22;5313;48.834;9.228;2023-03-14T14:49:55;10.00;99.90
10530;DHT22;5313;48.834;9.228;2023-03-14T14:52:44;9.90;99.90
10530;DHT22;5313;48.834;9.228;2023-03-14T14:55:17;9.90;99.90
10530;DHT22;5313;48.834;9.228;2023-03-14T14:57:49;10.00;99.90
10530;DHT22;5313;48.834;9.228;2023-03-14T15:00:21;10.00;99.90
10530;DHT22;5313;48.834;9.228;2023-03-14T15:02:52;9.90;99.50
10530;DHT22;5313;48.834;9.228;2023-03-14T15:05:28;9.80;99.90
10530;DHT22;5313;48.834;9.228;2023-03-14T15:07:55;9.90;99.90
10530;DHT22;5313;48.834;9.228;2023-03-14T15:10:24;9.90;99.90
10530;DHT22;5313;48.834;9.228;2023-03-14T15:12:50;10.00;99.90
10530;DHT22;5313;48.834;9.228;2023-03-14T15:15:16;10.00;99.90
10530;DHT22;5313;48.834;9.228;2023-03-14T15:17:42;10.10;99.90
10530;DHT22;5313;48.834;9.228;2023-03-14T15:20:13;10.20;99.90
10530;DHT22;5313;48.834;9.228;2023-03-14T15:22:40;10.50;99.90
10530;DHT22;5313;48.834;9.228;2023-03-14T15:25:06;10.70;99.00
10530;DHT22;5313;48.834;9.228;2023-03-14T15:27:33;10.70;98.80
10530;DHT22;5313;48.834;9.228;2023-03-14T15:29:58;10.70;99.00
10530;DHT22;5313;48.834;9.228;2023-03-14T15:32:25;10.70;99.40
10530;DHT22;5313;48.834;9.228;2023-03-14T15:34:54;10.60;99.40
10530;DHT22;5313;48.834;9.228;2023-03-14T15:37:19;10.40;99.20
10530;DHT22;5313;48.834;9.228;2023-03-14T15:39:45;10.30;99.40
10530;DHT22;5313;48.834;9.228;2023-03-14T15:42:11;10.30;99.40
10530;DHT22;5313;48.834;9.228;2023-03-14T15:44:37;10.20;99.90
10530;DHT22;5313;48.834;9.228;2023-03-14T15:47:03;10.20;99.90
10530;DHT22;5313;48.834;9.228;2023-03-14T15:49:28;10.30;99.90
10530;DHT22;5313;48.834;9.228;2023-03-14T15:51:54;10.40;99.90
10530;DHT22;5313;48.834;9.228;2023-03-14T15:54:19;10.20;99.90
10530;DHT22;5313;48.834;9.228;2023-03-14T15:56:45;10.10;99.90
10530;DHT22;5313;48.834;9.228;2023-03-14T15:59:11;10.00;99.90
10530;DHT22;5313;48.834;9.228;2023-03-14T16:01:36;10.00;99.90
10530;DHT22;5313;48.834;9.228;2023-03-14T16:04:02;10.00;99.90
10530;DHT22;5313;48.834;9.228;2023-03-14T16:06:28;10.10;99.90
10530;DHT22;5313;48.834;9.228;2023-03-14T16:08:56;10.20;99.90
10530;DHT22;5313;48.834;9.228;2023-03-14T16:11:21;10.20;99.90
10530;DHT22;5313;48.834;9.228;2023-03-14T16:13:47;10.10;99.90
10530;DHT22;5313;48.834;9.228;2023-03-14T16:16:13;10.00;99.90
10530;DHT22;5313;48.834;9.228;2023-03-14T16:18:39;10.00;99.90
10530;DHT22;5313;48.834;9.228;2023-03-14T16:21:07;10.00;99.90
10530;DHT22;5313;48.834;9.228;2023-03-14T16:23:34;10.00;99.90
10530;DHT22;5313;48.834;9.228;2023-03-14T16:26:06;9.90;99.90
10530;DHT22;5313;48.834;9.228;2023-03-14T16:28:33;9.80;99.90
10530;DHT22;5313;48.834;9.228;2023-03-14T16:31:03;9.80;99.90
10530;DHT22;5313;48.834;9.228;2023-03-14T16:33:31;9.70;99.90
10530;DHT22;5313;48.834;9.228;2023-03-14T16:35:58;9.60;99.90
10530;DHT22;5313;48.834;9.228;2023-03-14T16:38:26;9.60;99.90
10530;DHT22;5313;48.834;9.228;2023-03-14T16:41:00;9.60;99.90
10530;DHT22;5313;48.834;9.228;2023-03-14T16:43:27;9.60;99.90
10530;DHT22;5313;48.834;9.228;2023-03-14T16:45:52;9.60;99.90
10530;DHT22;5313;48.834;9.228;2023-03-14T16:48:19;9.50;99.90
10530;DHT22;5313;48.834;9.228;2023-03-14T16:50:44;9.50;99.90